Aeroporto :
LOGIN :

Iscrizione | Disclaimer

   EN    FR    IT 

 










Sommario :    VFR   VFR Marginale   IFR   IFR Intensivo   IFR Molto Intensivo
Visibilità : 
Base nubi : 
>= 8 km
>= 3000ft
5 / 8 km
1000 / 3000 ft
1500m / 5 km
500 / 1000 ft
800 / 1500m
200 / 500 ft
< 800m
< 200 ft
Simboli :   Temporali  Nebbia  Neve Forte  Precipitazioni Forti  Vento > 20 kt
SIGMETs :   Varie  Temporali  Ghiacco  Turbolenza  Onda orograficha  Ceneri Vulcaniche






- Altitudine del aeroporto : 374 ft
- Codice IATA : LIS


LPPT - Lisboa Portela

ULTIMO METAR :
  • 291300Z 27010KT 230V310 9999 SCT030 17/10 Q1017

METARs OBSOLETI :
  • 291230Z 29008KT 240V320 9999 SCT030 17/11 Q1018
  • 291200Z 28009KT 240V310 9999 SCT028 17/10 Q1018
  • 291130Z 29010KT 260V320 9999 FEW025 17/11 Q1018
  • 291100Z 28009KT 240V310 9999 FEW022 16/12 Q1018
  • 291030Z 29007KT 250V340 9999 FEW024 BKN034 16/12 Q1018

TAF TAF LPPT
Valido dal 29 a 12 ore il 01 a 18 ore UTC


291100Z 2912/0118 30012KT 9999 SCT030
PROB40
TEMPO 2912/2918 BKN015
BECMG 2919/2921 25007KT
BECMG 0103/0106 23013KT SCT012 BKN025
TEMPO 0108/0118 5000 RADZ BR SCT006 BKN012



MetMap, La meteo Aeronautica in un colpo d'occhio ! - Copyright ORBIFLY Dicembre 2007 - Disclaimer

ORBIFLY MET'MAP TEAM :

Programmazione e sviluppo : Alexandra Zaïnal
Concezione : Baudouin d'Aumeries
Aiuto per la programmazione : Marc-Olivier Méhu
Supporto tecnico e logistico : Manuel Goepfert
Aiuto per la traduzione : Arnaldo La Scala

Contatto : metmap@orbifly.com




FONTI E CREDITI :

   NOAA